sensor_id;sensor_type;location;lat;lon;timestamp;temperature;humidity
51815;DHT22;37874;53.158;6.766;2022-12-07T00:03:11;18.20;57.10
51815;DHT22;37874;53.158;6.766;2022-12-07T00:05:37;18.10;57.30
51815;DHT22;37874;53.158;6.766;2022-12-07T00:08:21;17.90;57.60
51815;DHT22;37874;53.158;6.766;2022-12-07T00:11:25;18.20;57.60
51815;DHT22;37874;53.158;6.766;2022-12-07T00:19:40;18.10;57.60
51815;DHT22;37874;53.158;6.766;2022-12-07T00:22:25;18.20;57.60
51815;DHT22;37874;53.158;6.766;2022-12-07T00:24:51;18.20;57.80
51815;DHT22;37874;53.158;6.766;2022-12-07T00:27:17;18.20;58.00
51815;DHT22;37874;53.158;6.766;2022-12-07T00:29:43;18.20;58.00
51815;DHT22;37874;53.158;6.766;2022-12-07T00:32:09;18.20;57.80
51815;DHT22;37874;53.158;6.766;2022-12-07T00:34:34;18.20;57.70
51815;DHT22;37874;53.158;6.766;2022-12-07T00:37:00;18.20;57.50
51815;DHT22;37874;53.158;6.766;2022-12-07T00:39:29;18.10;57.80
51815;DHT22;37874;53.158;6.766;2022-12-07T00:41:55;18.10;57.80
51815;DHT22;37874;53.158;6.766;2022-12-07T00:44:20;18.10;57.70
51815;DHT22;37874;53.158;6.766;2022-12-07T00:46:47;18.10;57.40
51815;DHT22;37874;53.158;6.766;2022-12-07T00:49:12;18.10;57.40
51815;DHT22;37874;53.158;6.766;2022-12-07T00:51:38;18.10;57.50
51815;DHT22;37874;53.158;6.766;2022-12-07T00:54:04;18.10;57.50
51815;DHT22;37874;53.158;6.766;2022-12-07T00:56:30;17.50;57.10
51815;DHT22;37874;53.158;6.766;2022-12-07T00:58:58;18.00;57.80
51815;DHT22;37874;53.158;6.766;2022-12-07T01:01:28;18.10;57.80
51815;DHT22;37874;53.158;6.766;2022-12-07T01:03:54;18.00;57.80
51815;DHT22;37874;53.158;6.766;2022-12-07T01:06:22;18.00;57.60
51815;DHT22;37874;53.158;6.766;2022-12-07T01:08:49;18.00;58.10
51815;DHT22;37874;53.158;6.766;2022-12-07T01:11:20;18.00;58.00
51815;DHT22;37874;53.158;6.766;2022-12-07T01:13:46;18.00;57.70
51815;DHT22;37874;53.158;6.766;2022-12-07T01:16:15;18.00;57.90
51815;DHT22;37874;53.158;6.766;2022-12-07T01:18:42;18.00;58.30
51815;DHT22;37874;53.158;6.766;2022-12-07T01:21:17;18.00;58.20
51815;DHT22;37874;53.158;6.766;2022-12-07T01:23:44;18.00;58.30
51815;DHT22;37874;53.158;6.766;2022-12-07T01:26:13;18.00;58.40
51815;DHT22;37874;53.158;6.766;2022-12-07T01:28:39;18.00;58.20
51815;DHT22;37874;53.158;6.766;2022-12-07T01:31:07;18.00;58.00
51815;DHT22;37874;53.158;6.766;2022-12-07T01:33:36;18.00;57.90
51815;DHT22;37874;53.158;6.766;2022-12-07T01:36:04;18.00;57.90
51815;DHT22;37874;53.158;6.766;2022-12-07T01:38:31;18.00;58.00
51815;DHT22;37874;53.158;6.766;2022-12-07T01:40:58;18.00;57.90
51815;DHT22;37874;53.158;6.766;2022-12-07T01:43:26;18.00;58.00
51815;DHT22;37874;53.158;6.766;2022-12-07T01:45:53;18.00;57.90
51815;DHT22;37874;53.158;6.766;2022-12-07T01:48:43;18.00;57.90
51815;DHT22;37874;53.158;6.766;2022-12-07T01:51:11;18.00;58.10
51815;DHT22;37874;53.158;6.766;2022-12-07T01:53:41;18.00;58.00
51815;DHT22;37874;53.158;6.766;2022-12-07T01:56:10;18.00;57.90
51815;DHT22;37874;53.158;6.766;2022-12-07T01:58:39;18.00;57.80
51815;DHT22;37874;53.158;6.766;2022-12-07T02:01:05;17.90;57.30
51815;DHT22;37874;53.158;6.766;2022-12-07T02:03:40;18.00;57.80
51815;DHT22;37874;53.158;6.766;2022-12-07T02:06:08;17.90;57.80
51815;DHT22;37874;53.158;6.766;2022-12-07T02:08:35;17.90;58.00
51815;DHT22;37874;53.158;6.766;2022-12-07T02:11:02;17.90;58.10
51815;DHT22;37874;53.158;6.766;2022-12-07T02:13:31;17.90;58.10
51815;DHT22;37874;53.158;6.766;2022-12-07T02:16:23;17.90;58.20
51815;DHT22;37874;53.158;6.766;2022-12-07T02:22:51;17.90;58.10
51815;DHT22;37874;53.158;6.766;2022-12-07T02:28:25;17.90;58.10
51815;DHT22;37874;53.158;6.766;2022-12-07T02:30:55;17.90;58.10
51815;DHT22;37874;53.158;6.766;2022-12-07T02:33:44;17.90;57.90
51815;DHT22;37874;53.158;6.766;2022-12-07T02:36:28;17.90;58.00
51815;DHT22;37874;53.158;6.766;2022-12-07T02:41:42;17.90;58.00
51815;DHT22;37874;53.158;6.766;2022-12-07T02:44:12;17.90;57.90
51815;DHT22;37874;53.158;6.766;2022-12-07T02:46:44;17.90;57.80
51815;DHT22;37874;53.158;6.766;2022-12-07T02:49:13;17.90;57.80
51815;DHT22;37874;53.158;6.766;2022-12-07T02:51:42;17.90;58.00
51815;DHT22;37874;53.158;6.766;2022-12-07T02:54:14;17.90;57.90
51815;DHT22;37874;53.158;6.766;2022-12-07T03:07:54;17.80;57.70
51815;DHT22;37874;53.158;6.766;2022-12-07T03:16:27;17.80;58.20
51815;DHT22;37874;53.158;6.766;2022-12-07T03:18:59;17.80;58.30
51815;DHT22;37874;53.158;6.766;2022-12-07T03:21:36;17.90;58.40
51815;DHT22;37874;53.158;6.766;2022-12-07T03:24:11;17.80;58.40
51815;DHT22;37874;53.158;6.766;2022-12-07T03:26:42;17.80;58.20
51815;DHT22;37874;53.158;6.766;2022-12-07T03:29:20;17.80;58.10
51815;DHT22;37874;53.158;6.766;2022-12-07T03:31:52;17.80;58.00
51815;DHT22;37874;53.158;6.766;2022-12-07T03:34:26;17.80;57.90
51815;DHT22;37874;53.158;6.766;2022-12-07T03:37:01;17.80;57.90
51815;DHT22;37874;53.158;6.766;2022-12-07T03:39:53;17.80;57.80
51815;DHT22;37874;53.158;6.766;2022-12-07T03:42:20;17.80;57.90
51815;DHT22;37874;53.158;6.766;2022-12-07T03:44:46;17.90;57.90
51815;DHT22;37874;53.158;6.766;2022-12-07T03:47:34;17.80;57.90
51815;DHT22;37874;53.158;6.766;2022-12-07T03:50:03;17.80;57.70
51815;DHT22;37874;53.158;6.766;2022-12-07T03:52:33;17.80;58.00
51815;DHT22;37874;53.158;6.766;2022-12-07T03:57:34;17.80;58.00
51815;DHT22;37874;53.158;6.766;2022-12-07T04:00:03;17.90;57.60
51815;DHT22;37874;53.158;6.766;2022-12-07T04:02:30;17.80;57.60
51815;DHT22;37874;53.158;6.766;2022-12-07T04:04:57;17.80;57.30
51815;DHT22;37874;53.158;6.766;2022-12-07T04:07:24;17.80;57.60
51815;DHT22;37874;53.158;6.766;2022-12-07T04:09:50;17.80;57.60
51815;DHT22;37874;53.158;6.766;2022-12-07T04:12:16;17.80;57.60
51815;DHT22;37874;53.158;6.766;2022-12-07T04:14:42;17.80;57.70
51815;DHT22;37874;53.158;6.766;2022-12-07T04:17:08;17.80;57.80
51815;DHT22;37874;53.158;6.766;2022-12-07T04:19:34;17.80;57.70
51815;DHT22;37874;53.158;6.766;2022-12-07T04:22:01;17.80;57.60
51815;DHT22;37874;53.158;6.766;2022-12-07T04:24:28;17.80;57.80
51815;DHT22;37874;53.158;6.766;2022-12-07T04:26:55;17.80;57.20
51815;DHT22;37874;53.158;6.766;2022-12-07T04:29:21;17.80;57.40
51815;DHT22;37874;53.158;6.766;2022-12-07T04:31:48;17.80;57.60
51815;DHT22;37874;53.158;6.766;2022-12-07T04:34:14;18.00;57.70
51815;DHT22;37874;53.158;6.766;2022-12-07T04:36:41;17.80;57.60
51815;DHT22;37874;53.158;6.766;2022-12-07T04:39:14;17.80;57.60
51815;DHT22;37874;53.158;6.766;2022-12-07T04:41:42;17.80;57.50
51815;DHT22;37874;53.158;6.766;2022-12-07T04:44:08;17.80;57.60
51815;DHT22;37874;53.158;6.766;2022-12-07T04:46:37;17.80;57.50
51815;DHT22;37874;53.158;6.766;2022-12-07T04:49:03;17.80;57.60
51815;DHT22;37874;53.158;6.766;2022-12-07T04:51:29;17.80;57.70
51815;DHT22;37874;53.158;6.766;2022-12-07T04:53:55;17.80;57.60
51815;DHT22;37874;53.158;6.766;2022-12-07T04:56:22;17.90;57.60
51815;DHT22;37874;53.158;6.766;2022-12-07T04:58:49;17.70;57.60
51815;DHT22;37874;53.158;6.766;2022-12-07T05:01:16;17.80;57.30
51815;DHT22;37874;53.158;6.766;2022-12-07T05:03:43;17.80;57.40
51815;DHT22;37874;53.158;6.766;2022-12-07T05:06:09;17.80;57.70
51815;DHT22;37874;53.158;6.766;2022-12-07T05:08:36;17.80;57.60
51815;DHT22;37874;53.158;6.766;2022-12-07T05:11:03;17.80;57.50
51815;DHT22;37874;53.158;6.766;2022-12-07T05:13:29;17.80;57.60
51815;DHT22;37874;53.158;6.766;2022-12-07T05:15:55;17.80;57.60
51815;DHT22;37874;53.158;6.766;2022-12-07T05:18:21;17.80;57.70
51815;DHT22;37874;53.158;6.766;2022-12-07T05:20:47;17.80;57.60
51815;DHT22;37874;53.158;6.766;2022-12-07T05:23:13;17.80;58.10
51815;DHT22;37874;53.158;6.766;2022-12-07T05:25:39;17.80;57.70
51815;DHT22;37874;53.158;6.766;2022-12-07T05:28:05;17.80;57.80
51815;DHT22;37874;53.158;6.766;2022-12-07T05:30:31;17.80;57.60
51815;DHT22;37874;53.158;6.766;2022-12-07T05:32:57;17.80;57.70
51815;DHT22;37874;53.158;6.766;2022-12-07T05:35:23;17.80;57.40
51815;DHT22;37874;53.158;6.766;2022-12-07T05:37:49;17.10;57.10
51815;DHT22;37874;53.158;6.766;2022-12-07T05:40:16;17.80;57.60
51815;DHT22;37874;53.158;6.766;2022-12-07T05:42:42;17.80;57.40
51815;DHT22;37874;53.158;6.766;2022-12-07T05:45:11;17.80;57.50
51815;DHT22;37874;53.158;6.766;2022-12-07T05:47:37;17.70;57.40
51815;DHT22;37874;53.158;6.766;2022-12-07T05:50:04;17.80;57.40
51815;DHT22;37874;53.158;6.766;2022-12-07T05:52:31;17.70;57.20
51815;DHT22;37874;53.158;6.766;2022-12-07T05:54:57;17.70;57.50
51815;DHT22;37874;53.158;6.766;2022-12-07T05:57:22;17.70;57.40
51815;DHT22;37874;53.158;6.766;2022-12-07T05:59:48;17.70;58.00
51815;DHT22;37874;53.158;6.766;2022-12-07T06:02:15;17.70;57.50
51815;DHT22;37874;53.158;6.766;2022-12-07T06:04:43;17.70;57.30
51815;DHT22;37874;53.158;6.766;2022-12-07T06:07:11;17.70;57.50
51815;DHT22;37874;53.158;6.766;2022-12-07T06:09:38;17.70;57.60
51815;DHT22;37874;53.158;6.766;2022-12-07T06:12:05;17.70;57.80
51815;DHT22;37874;53.158;6.766;2022-12-07T06:14:50;17.70;57.50
51815;DHT22;37874;53.158;6.766;2022-12-07T06:17:16;17.70;57.40
51815;DHT22;37874;53.158;6.766;2022-12-07T06:19:43;17.70;57.60
51815;DHT22;37874;53.158;6.766;2022-12-07T06:22:09;17.70;57.70
51815;DHT22;37874;53.158;6.766;2022-12-07T06:24:36;17.70;57.50
51815;DHT22;37874;53.158;6.766;2022-12-07T06:27:02;17.70;57.30
51815;DHT22;37874;53.158;6.766;2022-12-07T06:29:28;17.70;57.60
51815;DHT22;37874;53.158;6.766;2022-12-07T06:31:53;17.70;57.60
51815;DHT22;37874;53.158;6.766;2022-12-07T06:34:21;17.70;57.40
51815;DHT22;37874;53.158;6.766;2022-12-07T06:36:49;17.80;57.10
51815;DHT22;37874;53.158;6.766;2022-12-07T06:39:35;17.70;56.90
51815;DHT22;37874;53.158;6.766;2022-12-07T06:42:01;17.70;57.30
51815;DHT22;37874;53.158;6.766;2022-12-07T06:44:45;17.70;57.10
51815;DHT22;37874;53.158;6.766;2022-12-07T06:47:48;17.70;56.90
51815;DHT22;37874;53.158;6.766;2022-12-07T06:50:51;17.70;56.50
51815;DHT22;37874;53.158;6.766;2022-12-07T07:02:27;17.80;56.90
51815;DHT22;37874;53.158;6.766;2022-12-07T07:13:45;17.80;57.00
51815;DHT22;37874;53.158;6.766;2022-12-07T07:34:31;17.70;57.00
51815;DHT22;37874;53.158;6.766;2022-12-07T07:43:22;17.60;56.40
51815;DHT22;37874;53.158;6.766;2022-12-07T07:55:35;17.60;56.80
51815;DHT22;37874;53.158;6.766;2022-12-07T08:04:27;17.70;56.70
51815;DHT22;37874;53.158;6.766;2022-12-07T08:07:29;17.70;57.10
51815;DHT22;37874;53.158;6.766;2022-12-07T08:10:14;17.70;57.00
51815;DHT22;37874;53.158;6.766;2022-12-07T08:15:46;17.70;56.10
51815;DHT22;37874;53.158;6.766;2022-12-07T08:18:49;17.70;56.20
51815;DHT22;37874;53.158;6.766;2022-12-07T08:21:33;17.70;56.30
51815;DHT22;37874;53.158;6.766;2022-12-07T08:36:13;17.70;56.80
51815;DHT22;37874;53.158;6.766;2022-12-07T08:44:45;17.70;56.70
51815;DHT22;37874;53.158;6.766;2022-12-07T08:47:11;17.70;56.70
51815;DHT22;37874;53.158;6.766;2022-12-07T08:49:43;17.70;56.60
51815;DHT22;37874;53.158;6.766;2022-12-07T08:52:11;17.80;56.80
51815;DHT22;37874;53.158;6.766;2022-12-07T08:54:38;17.70;56.50
51815;DHT22;37874;53.158;6.766;2022-12-07T08:57:05;17.80;56.00
51815;DHT22;37874;53.158;6.766;2022-12-07T08:59:33;17.70;55.30
51815;DHT22;37874;53.158;6.766;2022-12-07T09:02:00;17.70;56.00
51815;DHT22;37874;53.158;6.766;2022-12-07T09:04:26;17.70;56.00
51815;DHT22;37874;53.158;6.766;2022-12-07T09:06:54;17.80;56.60
51815;DHT22;37874;53.158;6.766;2022-12-07T09:09:20;17.70;56.10
51815;DHT22;37874;53.158;6.766;2022-12-07T09:11:46;17.70;56.20
51815;DHT22;37874;53.158;6.766;2022-12-07T09:14:13;17.80;57.10
51815;DHT22;37874;53.158;6.766;2022-12-07T09:16:39;17.80;56.30
51815;DHT22;37874;53.158;6.766;2022-12-07T09:19:06;17.80;56.20
51815;DHT22;37874;53.158;6.766;2022-12-07T09:21:33;17.80;56.20
51815;DHT22;37874;53.158;6.766;2022-12-07T09:23:58;17.80;56.40
51815;DHT22;37874;53.158;6.766;2022-12-07T09:26:24;17.80;56.20
51815;DHT22;37874;53.158;6.766;2022-12-07T09:28:50;17.80;56.00
51815;DHT22;37874;53.158;6.766;2022-12-07T09:31:16;17.80;56.30
51815;DHT22;37874;53.158;6.766;2022-12-07T09:33:42;17.80;56.30
51815;DHT22;37874;53.158;6.766;2022-12-07T09:36:08;17.90;56.60
51815;DHT22;37874;53.158;6.766;2022-12-07T09:38:35;17.90;56.00
51815;DHT22;37874;53.158;6.766;2022-12-07T09:41:06;17.90;56.20
51815;DHT22;37874;53.158;6.766;2022-12-07T09:43:34;17.90;56.10
51815;DHT22;37874;53.158;6.766;2022-12-07T09:46:00;17.90;56.50
51815;DHT22;37874;53.158;6.766;2022-12-07T09:48:31;17.90;56.20
51815;DHT22;37874;53.158;6.766;2022-12-07T09:50:59;17.90;55.70
51815;DHT22;37874;53.158;6.766;2022-12-07T09:53:34;17.90;55.80
51815;DHT22;37874;53.158;6.766;2022-12-07T09:56:02;17.90;55.60
51815;DHT22;37874;53.158;6.766;2022-12-07T09:58:30;17.90;55.40
51815;DHT22;37874;53.158;6.766;2022-12-07T10:01:00;17.90;55.50
51815;DHT22;37874;53.158;6.766;2022-12-07T10:03:27;17.90;56.00
51815;DHT22;37874;53.158;6.766;2022-12-07T10:05:54;17.90;55.50
51815;DHT22;37874;53.158;6.766;2022-12-07T10:08:21;17.90;56.20
51815;DHT22;37874;53.158;6.766;2022-12-07T10:10:51;17.90;55.80
51815;DHT22;37874;53.158;6.766;2022-12-07T10:13:33;17.90;55.90
51815;DHT22;37874;53.158;6.766;2022-12-07T10:15:59;17.90;55.70
51815;DHT22;37874;53.158;6.766;2022-12-07T10:18:39;17.90;56.10
51815;DHT22;37874;53.158;6.766;2022-12-07T10:23:40;18.00;55.40
51815;DHT22;37874;53.158;6.766;2022-12-07T10:26:21;18.00;55.20
51815;DHT22;37874;53.158;6.766;2022-12-07T10:28:51;18.00;55.10
51815;DHT22;37874;53.158;6.766;2022-12-07T10:31:19;18.00;55.90
51815;DHT22;37874;53.158;6.766;2022-12-07T10:33:54;17.90;55.30
51815;DHT22;37874;53.158;6.766;2022-12-07T10:38:59;18.00;55.70
51815;DHT22;37874;53.158;6.766;2022-12-07T10:41:26;18.00;55.60
51815;DHT22;37874;53.158;6.766;2022-12-07T10:43:54;18.00;55.20
51815;DHT22;37874;53.158;6.766;2022-12-07T10:46:30;18.00;55.20
51815;DHT22;37874;53.158;6.766;2022-12-07T10:49:23;18.00;55.40
51815;DHT22;37874;53.158;6.766;2022-12-07T11:00:24;18.20;55.80
51815;DHT22;37874;53.158;6.766;2022-12-07T11:11:13;18.40;55.50
51815;DHT22;37874;53.158;6.766;2022-12-07T11:16:52;18.40;55.70
51815;DHT22;37874;53.158;6.766;2022-12-07T11:19:34;18.30;55.20
51815;DHT22;37874;53.158;6.766;2022-12-07T11:22:15;18.30;55.20
51815;DHT22;37874;53.158;6.766;2022-12-07T11:24:55;18.30;55.70
51815;DHT22;37874;53.158;6.766;2022-12-07T11:27:36;18.20;55.90
51815;DHT22;37874;53.158;6.766;2022-12-07T11:30:20;18.20;56.00
51815;DHT22;37874;53.158;6.766;2022-12-07T11:38:17;18.20;56.00
51815;DHT22;37874;53.158;6.766;2022-12-07T11:40:48;18.20;55.70
51815;DHT22;37874;53.158;6.766;2022-12-07T11:43:25;18.20;55.90
51815;DHT22;37874;53.158;6.766;2022-12-07T11:51:01;18.30;55.80
51815;DHT22;37874;53.158;6.766;2022-12-07T11:56:20;18.20;55.50
51815;DHT22;37874;53.158;6.766;2022-12-07T12:06:37;18.20;56.10
51815;DHT22;37874;53.158;6.766;2022-12-07T12:09:21;18.30;56.20
51815;DHT22;37874;53.158;6.766;2022-12-07T12:20:00;18.20;55.80
51815;DHT22;37874;53.158;6.766;2022-12-07T12:22:33;18.20;55.70
51815;DHT22;37874;53.158;6.766;2022-12-07T12:25:05;18.20;55.80
51815;DHT22;37874;53.158;6.766;2022-12-07T12:27:37;18.20;56.00
51815;DHT22;37874;53.158;6.766;2022-12-07T12:30:07;18.20;55.90
51815;DHT22;37874;53.158;6.766;2022-12-07T12:32:49;18.20;56.30
51815;DHT22;37874;53.158;6.766;2022-12-07T12:35:41;18.20;55.90
51815;DHT22;37874;53.158;6.766;2022-12-07T12:38:31;18.20;56.30
51815;DHT22;37874;53.158;6.766;2022-12-07T12:40:59;18.10;56.20
51815;DHT22;37874;53.158;6.766;2022-12-07T12:51:49;18.20;56.30
51815;DHT22;37874;53.158;6.766;2022-12-07T12:59:31;18.20;56.90
51815;DHT22;37874;53.158;6.766;2022-12-07T13:02:25;18.20;56.60
51815;DHT22;37874;53.158;6.766;2022-12-07T13:15:45;18.10;56.30
51815;DHT22;37874;53.158;6.766;2022-12-07T13:18:51;18.10;56.00
51815;DHT22;37874;53.158;6.766;2022-12-07T13:26:14;17.90;56.70
51815;DHT22;37874;53.158;6.766;2022-12-07T13:32:17;17.90;56.50
51815;DHT22;37874;53.158;6.766;2022-12-07T13:34:30;17.90;56.40
51815;DHT22;37874;53.158;6.766;2022-12-07T13:36:57;17.90;56.30
51815;DHT22;37874;53.158;6.766;2022-12-07T13:39:24;17.90;55.90
51815;DHT22;37874;53.158;6.766;2022-12-07T13:41:56;17.90;56.70
51815;DHT22;37874;53.158;6.766;2022-12-07T13:44:24;17.90;56.90
51815;DHT22;37874;53.158;6.766;2022-12-07T13:47:13;17.90;57.00
51815;DHT22;37874;53.158;6.766;2022-12-07T13:49:53;17.90;56.70
51815;DHT22;37874;53.158;6.766;2022-12-07T13:52:30;17.90;56.60
51815;DHT22;37874;53.158;6.766;2022-12-07T13:57:27;17.90;56.30
51815;DHT22;37874;53.158;6.766;2022-12-07T13:59:54;17.80;57.00
51815;DHT22;37874;53.158;6.766;2022-12-07T14:02:34;17.80;55.80
51815;DHT22;37874;53.158;6.766;2022-12-07T14:05:22;17.80;56.70
51815;DHT22;37874;53.158;6.766;2022-12-07T14:08:02;17.80;57.40
51815;DHT22;37874;53.158;6.766;2022-12-07T14:10:36;17.80;57.40
51815;DHT22;37874;53.158;6.766;2022-12-07T14:15:51;17.80;57.50
51815;DHT22;37874;53.158;6.766;2022-12-07T14:18:37;17.90;57.30
51815;DHT22;37874;53.158;6.766;2022-12-07T14:23:29;17.90;57.50
51815;DHT22;37874;53.158;6.766;2022-12-07T14:28:37;17.80;57.60
51815;DHT22;37874;53.158;6.766;2022-12-07T14:31:15;17.90;57.60
51815;DHT22;37874;53.158;6.766;2022-12-07T14:33:42;17.90;57.70
51815;DHT22;37874;53.158;6.766;2022-12-07T14:36:12;17.90;57.50
51815;DHT22;37874;53.158;6.766;2022-12-07T14:38:38;17.90;57.80
51815;DHT22;37874;53.158;6.766;2022-12-07T14:41:10;17.90;57.90
51815;DHT22;37874;53.158;6.766;2022-12-07T14:47:18;17.90;57.90
51815;DHT22;37874;53.158;6.766;2022-12-07T14:50:03;17.90;58.10
51815;DHT22;37874;53.158;6.766;2022-12-07T14:59:32;17.80;57.80
51815;DHT22;37874;53.158;6.766;2022-12-07T15:05:39;17.80;57.70
51815;DHT22;37874;53.158;6.766;2022-12-07T15:20:23;17.70;57.50
51815;DHT22;37874;53.158;6.766;2022-12-07T15:23:07;17.60;57.80
51815;DHT22;37874;53.158;6.766;2022-12-07T15:31:59;17.60;58.10
51815;DHT22;37874;53.158;6.766;2022-12-07T15:35:02;17.70;57.90
51815;DHT22;37874;53.158;6.766;2022-12-07T15:38:05;17.70;58.40
51815;DHT22;37874;53.158;6.766;2022-12-07T15:40:50;17.60;58.20
51815;DHT22;37874;53.158;6.766;2022-12-07T15:43:36;17.70;58.20
51815;DHT22;37874;53.158;6.766;2022-12-07T15:46:20;17.70;58.00
51815;DHT22;37874;53.158;6.766;2022-12-07T15:48:46;17.70;58.60
51815;DHT22;37874;53.158;6.766;2022-12-07T15:51:11;17.70;58.10
51815;DHT22;37874;53.158;6.766;2022-12-07T15:53:37;17.70;58.30
51815;DHT22;37874;53.158;6.766;2022-12-07T15:56:07;17.70;58.30
51815;DHT22;37874;53.158;6.766;2022-12-07T15:58:33;17.70;58.30
51815;DHT22;37874;53.158;6.766;2022-12-07T16:00:59;17.70;58.10
51815;DHT22;37874;53.158;6.766;2022-12-07T16:03:26;17.70;58.20
51815;DHT22;37874;53.158;6.766;2022-12-07T16:05:53;17.70;57.90
51815;DHT22;37874;53.158;6.766;2022-12-07T16:08:19;17.70;57.90
51815;DHT22;37874;53.158;6.766;2022-12-07T16:10:44;17.70;58.20
51815;DHT22;37874;53.158;6.766;2022-12-07T16:13:11;17.70;58.20
51815;DHT22;37874;53.158;6.766;2022-12-07T16:15:40;17.70;57.90
51815;DHT22;37874;53.158;6.766;2022-12-07T16:18:06;17.70;58.30
51815;DHT22;37874;53.158;6.766;2022-12-07T16:20:32;17.80;58.30
51815;DHT22;37874;53.158;6.766;2022-12-07T16:22:58;17.70;58.10
51815;DHT22;37874;53.158;6.766;2022-12-07T16:25:23;17.80;58.40
51815;DHT22;37874;53.158;6.766;2022-12-07T16:27:51;17.70;58.40
51815;DHT22;37874;53.158;6.766;2022-12-07T16:30:17;17.70;58.30
51815;DHT22;37874;53.158;6.766;2022-12-07T16:32:42;17.70;58.60
51815;DHT22;37874;53.158;6.766;2022-12-07T16:35:09;17.70;58.30
51815;DHT22;37874;53.158;6.766;2022-12-07T16:37:34;17.70;58.30
51815;DHT22;37874;53.158;6.766;2022-12-07T16:40:00;17.70;58.30
51815;DHT22;37874;53.158;6.766;2022-12-07T16:42:26;17.70;58.20
51815;DHT22;37874;53.158;6.766;2022-12-07T16:44:52;17.70;58.40
51815;DHT22;37874;53.158;6.766;2022-12-07T16:47:18;17.70;58.30
51815;DHT22;37874;53.158;6.766;2022-12-07T16:49:43;17.70;57.80
51815;DHT22;37874;53.158;6.766;2022-12-07T16:52:09;17.70;57.60
51815;DHT22;37874;53.158;6.766;2022-12-07T16:54:35;17.70;57.90
51815;DHT22;37874;53.158;6.766;2022-12-07T16:57:01;17.70;58.30
51815;DHT22;37874;53.158;6.766;2022-12-07T16:59:27;17.70;57.80
51815;DHT22;37874;53.158;6.766;2022-12-07T17:01:52;17.70;58.00
51815;DHT22;37874;53.158;6.766;2022-12-07T17:04:21;17.70;57.30
51815;DHT22;37874;53.158;6.766;2022-12-07T17:06:47;17.60;57.60
51815;DHT22;37874;53.158;6.766;2022-12-07T17:09:12;17.60;57.10
51815;DHT22;37874;53.158;6.766;2022-12-07T17:11:43;17.50;57.70
51815;DHT22;37874;53.158;6.766;2022-12-07T17:14:09;17.50;57.90
51815;DHT22;37874;53.158;6.766;2022-12-07T17:16:54;17.50;57.80
51815;DHT22;37874;53.158;6.766;2022-12-07T17:19:19;17.50;57.60
51815;DHT22;37874;53.158;6.766;2022-12-07T17:21:45;17.50;58.20
51815;DHT22;37874;53.158;6.766;2022-12-07T17:24:15;17.50;58.50
51815;DHT22;37874;53.158;6.766;2022-12-07T17:26:42;17.50;58.60
51815;DHT22;37874;53.158;6.766;2022-12-07T17:29:08;17.60;58.60
51815;DHT22;37874;53.158;6.766;2022-12-07T17:31:35;17.60;58.50
51815;DHT22;37874;53.158;6.766;2022-12-07T17:34:01;17.60;58.50
51815;DHT22;37874;53.158;6.766;2022-12-07T17:36:29;17.60;58.40
51815;DHT22;37874;53.158;6.766;2022-12-07T17:38:55;17.60;58.10
51815;DHT22;37874;53.158;6.766;2022-12-07T17:41:26;17.50;58.10
51815;DHT22;37874;53.158;6.766;2022-12-07T17:44:16;17.60;58.00
51815;DHT22;37874;53.158;6.766;2022-12-07T17:46:42;17.60;58.10
51815;DHT22;37874;53.158;6.766;2022-12-07T17:49:08;17.60;59.70
51815;DHT22;37874;53.158;6.766;2022-12-07T17:51:34;17.60;60.60
51815;DHT22;37874;53.158;6.766;2022-12-07T17:54:18;17.50;60.50
51815;DHT22;37874;53.158;6.766;2022-12-07T17:56:44;17.50;61.10
51815;DHT22;37874;53.158;6.766;2022-12-07T17:59:10;17.40;60.90
51815;DHT22;37874;53.158;6.766;2022-12-07T18:01:37;17.30;61.20
51815;DHT22;37874;53.158;6.766;2022-12-07T18:04:02;17.30;61.00
51815;DHT22;37874;53.158;6.766;2022-12-07T18:06:28;17.30;61.50
51815;DHT22;37874;53.158;6.766;2022-12-07T18:08:54;17.20;61.60
51815;DHT22;37874;53.158;6.766;2022-12-07T18:11:20;17.20;62.10
51815;DHT22;37874;53.158;6.766;2022-12-07T18:13:46;17.20;62.00
51815;DHT22;37874;53.158;6.766;2022-12-07T20:14:05;17.00;61.90
51815;DHT22;37874;53.158;6.766;2022-12-07T20:16:31;17.00;62.20
51815;DHT22;37874;53.158;6.766;2022-12-07T20:18:56;17.00;62.40
51815;DHT22;37874;53.158;6.766;2022-12-07T20:21:24;17.00;61.10
51815;DHT22;37874;53.158;6.766;2022-12-07T20:23:49;17.00;61.60
51815;DHT22;37874;53.158;6.766;2022-12-07T20:26:15;17.00;61.70
51815;DHT22;37874;53.158;6.766;2022-12-07T20:28:41;17.00;62.00
51815;DHT22;37874;53.158;6.766;2022-12-07T20:31:13;17.00;61.70
51815;DHT22;37874;53.158;6.766;2022-12-07T20:33:40;17.00;61.50
51815;DHT22;37874;53.158;6.766;2022-12-07T20:36:06;17.00;62.10
51815;DHT22;37874;53.158;6.766;2022-12-07T20:38:33;16.80;61.60
51815;DHT22;37874;53.158;6.766;2022-12-07T20:41:01;17.50;61.90
51815;DHT22;37874;53.158;6.766;2022-12-07T20:43:27;17.10;61.60
51815;DHT22;37874;53.158;6.766;2022-12-07T20:45:53;17.10;61.90
51815;DHT22;37874;53.158;6.766;2022-12-07T20:48:19;17.10;62.20
51815;DHT22;37874;53.158;6.766;2022-12-07T20:50:45;17.10;61.60
51815;DHT22;37874;53.158;6.766;2022-12-07T20:53:11;17.10;61.70
51815;DHT22;37874;53.158;6.766;2022-12-07T20:55:36;17.10;61.90
51815;DHT22;37874;53.158;6.766;2022-12-07T20:58:03;17.10;62.00
51815;DHT22;37874;53.158;6.766;2022-12-07T21:00:29;17.10;61.20
51815;DHT22;37874;53.158;6.766;2022-12-07T21:02:55;17.10;61.60
51815;DHT22;37874;53.158;6.766;2022-12-07T21:05:22;17.10;61.40
51815;DHT22;37874;53.158;6.766;2022-12-07T21:07:48;17.10;61.10
51815;DHT22;37874;53.158;6.766;2022-12-07T21:10:13;17.10;61.70
51815;DHT22;37874;53.158;6.766;2022-12-07T21:12:39;17.10;61.30
51815;DHT22;37874;53.158;6.766;2022-12-07T21:15:06;17.10;61.40
51815;DHT22;37874;53.158;6.766;2022-12-07T21:17:32;17.10;61.30
51815;DHT22;37874;53.158;6.766;2022-12-07T21:19:57;17.10;61.60
51815;DHT22;37874;53.158;6.766;2022-12-07T21:22:23;17.10;61.50
51815;DHT22;37874;53.158;6.766;2022-12-07T21:24:48;17.10;61.40
51815;DHT22;37874;53.158;6.766;2022-12-07T21:27:14;17.10;61.30
51815;DHT22;37874;53.158;6.766;2022-12-07T21:29:39;17.10;61.70
51815;DHT22;37874;53.158;6.766;2022-12-07T21:32:05;17.10;61.50
51815;DHT22;37874;53.158;6.766;2022-12-07T21:34:31;17.10;61.10
51815;DHT22;37874;53.158;6.766;2022-12-07T21:36:56;17.00;61.40
51815;DHT22;37874;53.158;6.766;2022-12-07T21:39:22;17.10;61.00
51815;DHT22;37874;53.158;6.766;2022-12-07T21:41:48;17.10;61.30
51815;DHT22;37874;53.158;6.766;2022-12-07T21:44:13;17.10;61.20
51815;DHT22;37874;53.158;6.766;2022-12-07T21:46:39;17.00;61.10
51815;DHT22;37874;53.158;6.766;2022-12-07T21:49:09;17.00;61.20
51815;DHT22;37874;53.158;6.766;2022-12-07T21:51:35;17.00;61.20
51815;DHT22;37874;53.158;6.766;2022-12-07T21:54:02;17.00;61.50